Messwerte Buschehr

Temperatur

Temperatur
°C
1638351000 13.00 13.00 26
1638354600 14.00 14.00 26
1638358200 15.00 15.00 27
1638361800 16.00 16.00 26
1638365400 17.00 17.00 25
1638369000 18.00 18.00 24
1638372600 19.00 19.00 23
1638376200 20.00 20.00 22
1638379800 21.00 21.00 22
1638383400 22.00 22.00
1638387000 23.00 23.00 21
1638390600 0.00 0.00 21
1638394200 1.00 1.00
1638397800 2.00 2.00
1638401400 3.00 3.00
1638405000 4.00 4.00
1638408600 5.00 5.00
1638412200 6.00 6.00
1638415800 7.00 7.00 18
1638419400 8.00 8.00 18
1638423000 9.00 9.00 21
1638426600 10.00 10.00 23
1638430200 11.00 11.00 27
1638433800 12.00 12.00 28

Aktuellste Messwerte

Wettercharakter
Wetter: recht sonnig
Temperatur
27 °C
Feuchtigkeit
50 %
Wind
20 km/hWindrichtung: Süd
Luftdruck
1015 hPa
Messzeit: 2. Dezember 2021, 12.30Datenquelle: METAR

Weitere Messstationen in der Nähe

Messstation Temperatur Entfernung
Kharg 28 °C 67 km
Gach Saran 23 °C 154 km
Shiraz 18 °C 175 km
Yasoge 14 °C 204 km
Omidiyeh 27 °C 232 km
Fasa 19 °C 275 km
Kuwait-Stadt 27 °C 280 km

Wind

Windrichtung Böen Mittelwind
° km/h km/h
1638351000 13.00 12.00 - 13.00 210° 20
1638354600 14.00 13.00 - 14.00 210° 15
1638358200 15.00 14.00 - 15.00 240° 15
1638361800 16.00 15.00 - 16.00 240° 15
1638365400 17.00 16.00 - 17.00 240° 15
1638369000 18.00 17.00 - 18.00 240° 10
1638372600 19.00 18.00 - 19.00 240° 10
1638376200 20.00 19.00 - 20.00 140° 5
1638379800 21.00 20.00 - 21.00 100° 5
1638383400 22.00 21.00 - 22.00
1638387000 23.00 22.00 - 23.00 100° 5
1638390600 0.00 23.00 - 0.00 100° 5
1638394200 1.00 0.00 - 1.00
1638397800 2.00 1.00 - 2.00
1638401400 3.00 2.00 - 3.00
1638405000 4.00 3.00 - 4.00
1638408600 5.00 4.00 - 5.00
1638412200 6.00 5.00 - 6.00
1638415800 7.00 6.00 - 7.00 100° 5
1638419400 8.00 7.00 - 8.00 100° 5
1638423000 9.00 8.00 - 9.00 100° 10
1638426600 10.00 9.00 - 10.00 120° 10
1638430200 11.00 10.00 - 11.00 160° 25
1638433800 12.00 11.00 - 12.00 180° 20

Ihre Wetterstation

Fehlt Ihre Wetterstation auf unserem Portal?

Schreiben Sie an network@meteonews.ch

Klima

Wann ist es am wärmsten? Wann regnet es am wenigsten? Unsere Klimadaten geben Auskunft.